Time;durP1;ratioP1;P1;durP2;ratioP2;P2;SDS_P1;SDS_P2;PMS_P1;PMS_P2;Temp;Humidity;BMP_temperature;BMP_pressure;BME280_temperature;BME280_humidity;BME280_pressure;Samples;Min_cycle;Max_cycle;Signal;HPM_P1;HPM_P2
2023/02/25 00:00:33;;;;;;;0.90;0.80;;;0.60;99.90;;;;;;4964536;28;20602;-65
2023/02/25 00:03:00;;;;;;;1.77;0.70;;;0.60;99.90;;;;;;4964263;28;20051;-67
2023/02/25 00:05:29;;;;;;;1.45;0.80;;;0.50;99.90;;;;;;4956993;28;20054;-66
2023/02/25 00:07:58;;;;;;;2.67;0.73;;;0.50;99.90;;;;;;4963049;28;20058;-65
2023/02/25 00:10:25;;;;;;;2.10;1.27;;;0.50;99.90;;;;;;4965596;28;20066;-65
2023/02/25 00:12:52;;;;;;;2.20;1.00;;;0.50;99.90;;;;;;4963719;28;20585;-66
2023/02/25 00:15:19;;;;;;;1.25;1.13;;;0.50;99.90;;;;;;4963066;28;20149;-69
2023/02/25 00:17:48;;;;;;;3.17;1.23;;;0.50;99.90;;;;;;4962248;28;20055;-66
2023/02/25 00:20:19;;;;;;;6.10;0.90;;;0.50;99.90;;;;;;4965543;28;20051;-64
2023/02/25 00:22:46;;;;;;;2.35;1.98;;;0.50;99.90;;;;;;4962099;28;20053;-66
2023/02/25 00:25:15;;;;;;;1.42;0.80;;;0.50;99.90;;;;;;4964190;28;20091;-65
2023/02/25 00:27:43;;;;;;;3.47;1.35;;;0.50;99.90;;;;;;4963381;28;20159;-65
2023/02/25 00:30:11;;;;;;;3.47;1.90;;;0.50;99.90;;;;;;4963523;28;20532;-65
2023/02/25 00:32:38;;;;;;;1.17;1.08;;;0.50;99.90;;;;;;4962032;28;20058;-66
2023/02/25 00:35:06;;;;;;;8.52;1.10;;;0.50;99.90;;;;;;4965046;28;20047;-65
2023/02/25 00:37:32;;;;;;;2.10;0.95;;;0.50;99.90;;;;;;4955823;28;20086;-66
2023/02/25 00:39:59;;;;;;;5.45;1.20;;;0.50;99.90;;;;;;4965516;28;20050;-65
2023/02/25 00:42:26;;;;;;;5.72;1.15;;;0.50;99.90;;;;;;4963940;28;20120;-65
2023/02/25 00:44:53;;;;;;;3.97;2.60;;;0.50;99.90;;;;;;4964871;28;20151;-65
2023/02/25 00:47:21;;;;;;;2.28;1.35;;;0.50;99.90;;;;;;4960004;28;20089;-66
2023/02/25 00:49:49;;;;;;;2.78;1.00;;;0.50;99.90;;;;;;4964919;28;20047;-65
2023/02/25 00:52:16;;;;;;;4.40;1.50;;;0.50;99.90;;;;;;4962213;28;20050;-65
2023/02/25 00:54:43;;;;;;;5.22;1.30;;;0.50;99.90;;;;;;4963810;28;20061;-65
2023/02/25 00:57:10;;;;;;;2.83;1.23;;;0.50;99.90;;;;;;4967596;28;20053;-66
2023/02/25 00:59:37;;;;;;;6.75;1.50;;;0.50;99.90;;;;;;4965776;28;20054;-65
2023/02/25 01:02:04;;;;;;;7.22;2.15;;;0.50;99.90;;;;;;4967680;28;20051;-65
2023/02/25 01:04:31;;;;;;;2.67;1.65;;;0.50;99.90;;;;;;4967691;28;20065;-65
2023/02/25 01:06:58;;;;;;;5.00;1.80;;;0.50;99.90;;;;;;4966814;28;20066;-65
2023/02/25 01:09:26;;;;;;;7.50;1.95;;;0.50;99.90;;;;;;4965944;28;20046;-66
2023/02/25 01:11:55;;;;;;;2.17;1.17;;;0.50;99.90;;;;;;4968015;28;20066;-65
2023/02/25 01:14:24;;;;;;;3.05;1.33;;;0.50;99.90;;;;;;4967012;28;20051;-67
2023/02/25 01:16:52;;;;;;;6.65;2.15;;;0.50;99.90;;;;;;4967790;28;20065;-65
2023/02/25 01:19:24;;;;;;;3.47;1.67;;;0.50;99.90;;;;;;4965526;28;20456;-65
2023/02/25 01:21:54;;;;;;;4.95;1.75;;;0.50;99.90;;;;;;4960870;28;20078;-65
2023/02/25 01:24:26;;;;;;;3.53;1.63;;;0.50;99.90;;;;;;4982401;28;20050;-66
2023/02/25 01:26:56;;;;;;;2.58;1.55;;;0.50;99.90;;;;;;4962581;28;20470;-66
2023/02/25 01:29:27;;;;;;;3.38;1.80;;;0.50;99.90;;;;;;4963363;28;20049;-65
2023/02/25 01:31:56;;;;;;;3.22;1.75;;;0.50;99.90;;;;;;4962177;28;21226;-65
2023/02/25 01:34:23;;;;;;;4.03;1.50;;;0.40;99.90;;;;;;4969438;28;20055;-65
2023/02/25 01:36:50;;;;;;;4.63;2.13;;;0.50;99.90;;;;;;4966810;28;20375;-70
2023/02/25 01:39:19;;;;;;;10.65;2.80;;;0.50;99.90;;;;;;4965935;28;20117;-65
2023/02/25 01:41:47;;;;;;;6.38;1.70;;;0.50;99.90;;;;;;4965135;28;20199;-65
2023/02/25 01:44:27;;;;;;;7.00;2.38;;;0.50;99.90;;;;;;4965448;28;20058;-67
2023/02/25 01:46:54;;;;;;;6.55;2.35;;;0.50;99.90;;;;;;4964756;28;20082;-65
2023/02/25 01:49:40;;;;;;;3.70;1.70;;;0.50;99.90;;;;;;4966072;28;22089;-67
2023/02/25 01:52:24;;;;;;;5.03;2.00;;;0.50;99.90;;;;;;4962988;28;20056;-65
2023/02/25 01:54:56;;;;;;;4.55;2.58;;;0.50;99.90;;;;;;4966621;28;20051;-65
2023/02/25 01:57:24;;;;;;;11.65;2.20;;;0.50;99.90;;;;;;4963058;28;20043;-65
2023/02/25 01:59:52;;;;;;;5.63;2.90;;;0.60;99.90;;;;;;4966296;28;20668;-65
2023/02/25 02:02:22;;;;;;;5.10;1.70;;;0.60;99.90;;;;;;4965698;28;20101;-67
2023/02/25 02:04:51;;;;;;;3.45;1.88;;;0.60;99.90;;;;;;4976395;28;20082;-65
2023/02/25 02:07:20;;;;;;;5.22;2.80;;;0.60;99.90;;;;;;4963063;28;20129;-67
2023/02/25 02:09:57;;;;;;;4.97;1.90;;;0.60;99.90;;;;;;4965706;28;20050;-66
2023/02/25 02:12:34;;;;;;;5.32;2.25;;;0.60;99.90;;;;;;4963049;28;20047;-65
2023/02/25 02:15:08;;;;;;;2.90;2.20;;;0.60;99.90;;;;;;4968004;28;20077;-67
2023/02/25 02:17:44;;;;;;;6.40;1.80;;;0.60;99.90;;;;;;4965114;28;20054;-65
2023/02/25 02:20:25;;;;;;;5.72;3.10;;;0.60;99.90;;;;;;4963023;28;20051;-65
2023/02/25 02:23:13;;;;;;;2.75;1.73;;;0.60;99.90;;;;;;4964215;28;20141;-64
2023/02/25 02:25:54;;;;;;;10.95;2.72;;;0.60;99.90;;;;;;4964365;28;20070;-65
2023/02/25 02:28:20;;;;;;;;;;;0.60;99.90;;;;;;4974691;28;20046;-65
2023/02/25 02:31:13;;;;;;;7.63;3.00;;;0.60;99.90;;;;;;4967248;28;19933;-66
2023/02/25 02:34:21;;;;;;;7.30;2.00;;;0.60;99.90;;;;;;4946982;28;20049;-65
2023/02/25 02:37:28;;;;;;;5.43;1.98;;;0.60;99.90;;;;;;4962965;28;20051;-66
2023/02/25 02:40:18;;;;;;;5.97;2.20;;;0.60;99.90;;;;;;4964674;28;20071;-64
2023/02/25 02:42:57;;;;;;;6.57;2.08;;;0.60;99.90;;;;;;4963138;28;20047;-64
2023/02/25 02:45:55;;;;;;;7.13;2.28;;;0.70;99.90;;;;;;4959397;28;20133;-66
2023/02/25 02:48:38;;;;;;;2.72;1.52;;;0.60;99.90;;;;;;4962464;28;20048;-64
2023/02/25 02:51:13;;;;;;;3.35;2.05;;;0.60;99.90;;;;;;4963835;28;20050;-64
2023/02/25 02:53:45;;;;;;;5.70;1.77;;;0.70;99.90;;;;;;4962365;28;20062;-64
2023/02/25 02:56:16;;;;;;;2.83;1.60;;;0.70;99.90;;;;;;4966379;28;20121;-65
2023/02/25 02:58:52;;;;;;;2.05;1.45;;;0.70;99.90;;;;;;4964374;28;20055;-64
2023/02/25 03:01:28;;;;;;;2.72;1.80;;;0.70;99.90;;;;;;4962624;28;20539;-66
2023/02/25 03:04:03;;;;;;;3.60;1.83;;;0.60;99.90;;;;;;4981364;28;20039;-64
2023/02/25 03:06:38;;;;;;;4.72;1.67;;;0.60;99.90;;;;;;4964071;28;20085;-66
2023/02/25 03:09:11;;;;;;;1.90;1.65;;;0.60;99.90;;;;;;4964933;28;20054;-64
2023/02/25 03:11:38;;;;;;;3.17;1.48;;;0.60;99.90;;;;;;4969871;28;20047;-64
2023/02/25 03:14:07;;;;;;;4.35;1.92;;;0.60;99.90;;;;;;4960337;28;20809;-64
2023/02/25 03:16:39;;;;;;;6.60;2.22;;;0.60;99.90;;;;;;4956661;28;20453;-64
2023/02/25 03:19:28;;;;;;;4.15;1.30;;;0.60;99.90;;;;;;4963961;28;20047;-64
2023/02/25 03:22:08;;;;;;;4.28;2.28;;;0.60;99.90;;;;;;4963454;28;20737;-64
2023/02/25 03:24:48;;;;;;;3.08;1.35;;;0.50;99.90;;;;;;4964243;28;20408;-65
2023/02/25 03:27:33;;;;;;;7.07;1.93;;;0.50;99.90;;;;;;4956446;28;20074;-65
2023/02/25 03:30:23;;;;;;;5.50;1.77;;;0.50;99.90;;;;;;4979005;28;20149;-64
2023/02/25 03:32:58;;;;;;;3.60;1.75;;;0.50;99.90;;;;;;4960295;28;20483;-66
2023/02/25 03:35:26;;;;;;;3.00;2.17;;;0.60;99.90;;;;;;4977360;28;20053;-65
2023/02/25 03:38:00;;;;;;;5.35;1.80;;;0.60;99.90;;;;;;4962118;28;20554;-65
2023/02/25 03:40:30;;;;;;;5.53;1.95;;;0.60;99.90;;;;;;4960895;28;20073;-64
2023/02/25 03:43:07;;;;;;;3.45;1.52;;;0.50;99.90;;;;;;4961316;28;20062;-65
2023/02/25 03:45:37;;;;;;;5.40;1.45;;;0.50;99.90;;;;;;4963282;28;20046;-66
2023/02/25 03:48:06;;;;;;;5.78;1.88;;;0.50;99.90;;;;;;4964688;28;20134;-65
2023/02/25 03:50:39;;;;;;;4.43;1.42;;;0.50;99.90;;;;;;4963045;28;20524;-64
2023/02/25 03:53:08;;;;;;;2.85;0.98;;;0.40;99.90;;;;;;4961484;28;20177;-64
2023/02/25 03:56:04;;;;;;;3.97;1.70;;;0.40;99.90;;;;;;4961517;28;20047;-65
2023/02/25 03:58:37;;;;;;;6.13;2.33;;;0.40;99.90;;;;;;4959745;28;20117;-63
2023/02/25 04:01:11;;;;;;;11.45;2.05;;;0.40;99.90;;;;;;4955317;28;20483;-64
2023/02/25 04:03:41;;;;;;;7.80;1.98;;;0.40;99.90;;;;;;4962120;28;20078;-64
2023/02/25 04:06:11;;;;;;;5.40;1.58;;;0.30;99.90;;;;;;4960052;28;20142;-64
2023/02/25 04:08:39;;;;;;;3.40;1.83;;;0.30;99.90;;;;;;4963455;28;20051;-65
2023/02/25 04:11:06;;;;;;;8.80;2.15;;;0.40;99.90;;;;;;4964156;28;20113;-65
2023/02/25 04:13:32;;;;;;;6.10;1.48;;;0.30;99.90;;;;;;4962169;28;20090;-64
2023/02/25 04:15:59;;;;;;;3.08;1.30;;;0.30;99.90;;;;;;4964466;28;20054;-65
2023/02/25 04:18:27;;;;;;;3.22;1.23;;;0.30;99.90;;;;;;4972769;28;20456;-63
2023/02/25 04:20:54;;;;;;;2.10;1.13;;;0.20;99.90;;;;;;4963637;28;20050;-65
2023/02/25 04:23:21;;;;;;;3.40;1.00;;;0.20;99.90;;;;;;4960780;28;21387;-66
2023/02/25 04:25:47;;;;;;;5.22;1.30;;;0.20;99.90;;;;;;4965478;28;20161;-63
2023/02/25 04:28:14;;;;;;;2.55;2.30;;;0.20;99.90;;;;;;4963930;28;20047;-66
2023/02/25 04:30:42;;;;;;;2.55;1.13;;;0.20;99.90;;;;;;4965690;28;20101;-65
2023/02/25 04:33:10;;;;;;;4.90;1.00;;;0.20;99.90;;;;;;4963973;28;20035;-64
2023/02/25 04:35:38;;;;;;;2.03;1.15;;;0.10;99.90;;;;;;4959853;28;20055;-66
2023/02/25 04:38:05;;;;;;;2.08;0.93;;;0.10;99.90;;;;;;4958745;28;20074;-64
2023/02/25 04:40:35;;;;;;;5.78;1.15;;;0.20;99.90;;;;;;4962870;28;20050;-64
2023/02/25 04:43:02;;;;;;;9.10;1.67;;;0.10;99.90;;;;;;4963441;28;20051;-65
2023/02/25 04:45:29;;;;;;;1.77;0.88;;;0.10;99.90;;;;;;4963784;28;20074;-65
2023/02/25 04:47:56;;;;;;;6.95;0.88;;;0.10;99.90;;;;;;4963417;28;20085;-64
2023/02/25 04:50:24;;;;;;;2.90;1.35;;;0.10;99.90;;;;;;4964393;28;20775;-65
2023/02/25 04:52:50;;;;;;;2.65;1.10;;;0.10;99.90;;;;;;4961418;28;20046;-64
2023/02/25 04:55:18;;;;;;;2.42;1.23;;;0.10;99.90;;;;;;4963647;28;20476;-64
2023/02/25 04:57:45;;;;;;;2.63;1.10;;;0.20;99.90;;;;;;4961206;28;20050;-66
2023/02/25 05:00:22;;;;;;;1.33;0.80;;;0.10;99.90;;;;;;4964627;28;20051;-64
2023/02/25 05:02:50;;;;;;;1.23;0.90;;;0.10;99.90;;;;;;4962524;28;20671;-65
2023/02/25 05:05:17;;;;;;;4.03;1.33;;;0.10;99.90;;;;;;4963494;28;20050;-64
2023/02/25 05:07:44;;;;;;;3.63;0.82;;;0.10;99.90;;;;;;4962105;28;20055;-64
2023/02/25 05:10:13;;;;;;;7.03;1.30;;;0.10;99.90;;;;;;4965409;28;20061;-63
2023/02/25 05:12:40;;;;;;;1.00;0.70;;;0.10;99.90;;;;;;4961466;28;20061;-64
2023/02/25 05:15:08;;;;;;;1.88;0.80;;;0.10;99.90;;;;;;4964468;28;20047;-64
2023/02/25 05:17:35;;;;;;;2.40;1.20;;;0.20;99.90;;;;;;4961783;28;20050;-64
2023/02/25 05:20:06;;;;;;;3.83;3.50;;;0.10;99.90;;;;;;4963373;28;20141;-64
2023/02/25 05:22:33;;;;;;;1.17;0.88;;;0.10;99.90;;;;;;4962323;28;20055;-63
2023/02/25 05:25:00;;;;;;;3.58;0.90;;;0.10;99.90;;;;;;4964403;28;20111;-65
2023/02/25 05:27:27;;;;;;;5.35;1.02;;;0.10;99.90;;;;;;4962616;28;20058;-64
2023/02/25 05:29:54;;;;;;;3.53;0.60;;;0.10;99.90;;;;;;4964889;28;20501;-64
2023/02/25 05:32:21;;;;;;;1.60;0.70;;;0.10;99.90;;;;;;4963917;28;20089;-64
2023/02/25 05:34:48;;;;;;;2.63;0.90;;;0.00;99.90;;;;;;4960245;28;20556;-64
2023/02/25 05:37:15;;;;;;;2.67;0.70;;;0.00;99.90;;;;;;4961151;28;20039;-64
2023/02/25 05:39:42;;;;;;;2.42;1.40;;;0.00;99.90;;;;;;4966323;28;20091;-64
2023/02/25 05:42:10;;;;;;;4.32;1.42;;;0.00;99.90;;;;;;4966811;28;20117;-64
2023/02/25 05:44:37;;;;;;;2.50;0.70;;;0.00;99.90;;;;;;4966806;28;20063;-64
2023/02/25 05:47:04;;;;;;;2.35;0.82;;;0.00;99.90;;;;;;4967148;28;20151;-63
2023/02/25 05:49:31;;;;;;;2.75;1.38;;;0.00;99.90;;;;;;4965315;28;20061;-64
2023/02/25 05:51:57;;;;;;;2.25;1.02;;;0.00;99.90;;;;;;4966025;28;20548;-63
2023/02/25 05:54:24;;;;;;;3.92;1.10;;;0.00;99.90;;;;;;4965420;28;20495;-65
2023/02/25 05:56:51;;;;;;;2.10;0.77;;;0.00;99.90;;;;;;4967352;28;20145;-64
2023/02/25 05:59:19;;;;;;;4.22;1.02;;;0.10;99.90;;;;;;4965305;28;20042;-65
2023/02/25 06:01:45;;;;;;;6.80;0.98;;;0.10;99.90;;;;;;4967858;28;20082;-64
2023/02/25 06:04:12;;;;;;;2.83;1.10;;;0.20;99.90;;;;;;4967259;28;20134;-65
2023/02/25 06:06:40;;;;;;;5.68;1.20;;;0.20;99.90;;;;;;4966238;28;20193;-65
2023/02/25 06:09:09;;;;;;;2.17;1.38;;;0.20;99.90;;;;;;4964910;28;20053;-64
2023/02/25 06:11:36;;;;;;;4.38;0.95;;;0.30;99.90;;;;;;4965408;28;20102;-64
2023/02/25 06:14:03;;;;;;;2.58;1.35;;;0.30;99.90;;;;;;4966555;28;20057;-66
2023/02/25 06:16:30;;;;;;;4.78;0.93;;;0.30;99.90;;;;;;4966718;28;20141;-64
2023/02/25 06:18:59;;;;;;;3.08;0.75;;;0.30;99.90;;;;;;4966833;28;20078;-65
2023/02/25 06:21:27;;;;;;;2.63;0.90;;;0.40;99.90;;;;;;4961853;28;20594;-65
2023/02/25 06:23:54;;;;;;;3.97;0.57;;;0.40;99.90;;;;;;4965758;28;20051;-66
2023/02/25 06:26:21;;;;;;;4.22;1.63;;;0.40;99.90;;;;;;4966357;28;20069;-68
2023/02/25 06:28:49;;;;;;;6.90;1.00;;;0.40;99.90;;;;;;4963601;28;20047;-66
2023/02/25 06:31:18;;;;;;;3.75;0.70;;;0.40;99.90;;;;;;4964692;28;20043;-68
2023/02/25 06:33:45;;;;;;;2.03;0.95;;;0.40;99.90;;;;;;4966815;28;20038;-66
2023/02/25 06:36:13;;;;;;;4.13;3.17;;;0.50;99.90;;;;;;4965376;28;20712;-65
2023/02/25 06:38:41;;;;;;;1.17;0.80;;;0.50;99.90;;;;;;4963790;28;20082;-66
2023/02/25 06:41:16;;;;;;;3.70;0.95;;;0.50;99.90;;;;;;4956378;28;20050;-66
2023/02/25 06:43:50;;;;;;;3.10;1.00;;;0.50;99.90;;;;;;4965305;28;20094;-66
2023/02/25 06:46:20;;;;;;;2.80;0.90;;;0.50;99.90;;;;;;4965023;28;20071;-65
2023/02/25 06:48:48;;;;;;;;;;;0.50;99.90;;;;;;4965507;28;20087;-67
2023/02/25 06:51:15;;;;;;;3.13;0.93;;;0.50;99.90;;;;;;4963769;28;20516;-65
2023/02/25 06:53:43;;;;;;;3.20;1.48;;;0.50;99.90;;;;;;4954648;28;20054;-67
2023/02/25 06:56:12;;;;;;;4.63;1.75;;;0.50;99.90;;;;;;4965870;28;20778;-66
2023/02/25 06:58:40;;;;;;;2.20;0.60;;;0.60;99.90;;;;;;4963354;28;20063;-67
2023/02/25 07:01:12;;;;;;;1.13;0.73;;;0.60;99.90;;;;;;4964542;28;20047;-65
2023/02/25 07:03:42;;;;;;;4.97;0.85;;;0.60;99.90;;;;;;4962803;28;20051;-65
2023/02/25 07:06:10;;;;;;;;;;;0.60;99.90;;;;;;4964695;28;20137;-65
2023/02/25 07:08:37;;;;;;;7.30;1.20;;;0.60;99.90;;;;;;4961441;28;19926;-65
2023/02/25 07:11:10;;;;;;;2.08;0.80;;;0.60;99.90;;;;;;4964678;28;20047;-67
2023/02/25 07:13:42;;;;;;;4.93;2.67;;;0.70;99.90;;;;;;4962546;28;20807;-67
2023/02/25 07:16:10;;;;;;;5.03;0.90;;;0.70;99.90;;;;;;4960897;28;20050;-65
2023/02/25 07:18:38;;;;;;;1.27;0.40;;;0.70;99.90;;;;;;4964634;28;20145;-67
2023/02/25 07:21:05;;;;;;;1.90;0.65;;;0.70;99.90;;;;;;4962327;28;20053;-66
2023/02/25 07:23:32;;;;;;;3.00;0.65;;;0.70;99.90;;;;;;4960807;28;20042;-65
2023/02/25 07:26:07;;;;;;;2.17;0.73;;;0.80;99.90;;;;;;4961475;28;20053;-68
2023/02/25 07:28:35;;;;;;;5.20;0.70;;;0.80;99.90;;;;;;4963241;28;21306;-65
2023/02/25 07:31:07;;;;;;;1.95;0.50;;;0.80;99.90;;;;;;4963024;28;20098;-67
2023/02/25 07:33:34;;;;;;;6.28;1.25;;;0.80;99.90;;;;;;4960991;28;20066;-67
2023/02/25 07:36:01;;;;;;;3.28;0.77;;;0.80;99.90;;;;;;4956758;28;20047;-66
2023/02/25 07:38:28;;;;;;;4.10;1.20;;;0.90;99.90;;;;;;4959609;28;20051;-66
2023/02/25 07:40:55;;;;;;;5.25;1.23;;;0.90;99.90;;;;;;4958086;28;20047;-65
2023/02/25 07:43:22;;;;;;;2.47;1.10;;;1.00;99.90;;;;;;4960876;28;20141;-65
2023/02/25 07:45:49;;;;;;;5.95;0.98;;;1.00;99.90;;;;;;4962160;28;20170;-65
2023/02/25 07:48:16;;;;;;;3.83;0.80;;;1.00;99.90;;;;;;4959993;28;20050;-65
2023/02/25 07:50:43;;;;;;;7.80;1.58;;;1.00;99.90;;;;;;4961811;28;20050;-66
2023/02/25 07:53:10;;;;;;;7.93;1.20;;;1.00;99.90;;;;;;4959974;28;20057;-66
2023/02/25 07:55:37;;;;;;;4.30;1.38;;;1.10;99.90;;;;;;4961885;28;20128;-66
2023/02/25 07:58:04;;;;;;;3.88;0.95;;;1.00;99.90;;;;;;4962608;28;20141;-65
2023/02/25 08:00:33;;;;;;;4.03;1.13;;;1.00;99.90;;;;;;4962127;28;20141;-66
2023/02/25 08:03:00;;;;;;;4.22;1.20;;;1.00;99.90;;;;;;4963470;28;20480;-65
2023/02/25 08:05:27;;;;;;;2.42;1.08;;;1.00;99.90;;;;;;4958490;28;20054;-66
2023/02/25 08:07:53;;;;;;;5.85;1.25;;;1.10;99.90;;;;;;4959658;28;20420;-65
2023/02/25 08:10:20;;;;;;;5.57;0.90;;;1.10;99.90;;;;;;4960325;28;20062;-66
2023/02/25 08:12:47;;;;;;;2.42;0.77;;;1.20;99.90;;;;;;4962727;28;20652;-65
2023/02/25 08:15:14;;;;;;;3.85;1.17;;;1.20;99.90;;;;;;4961874;28;20066;-65
2023/02/25 08:17:41;;;;;;;4.43;1.05;;;1.30;99.90;;;;;;4960853;28;20050;-65
2023/02/25 08:20:08;;;;;;;1.95;0.85;;;1.30;99.90;;;;;;4962694;28;20065;-65
2023/02/25 08:22:36;;;;;;;3.58;0.82;;;1.30;99.90;;;;;;4961678;28;20385;-64
2023/02/25 08:25:03;;;;;;;4.47;0.73;;;1.30;99.90;;;;;;4960298;28;20049;-65
2023/02/25 08:27:31;;;;;;;3.80;1.02;;;1.30;99.90;;;;;;4961114;28;20074;-65
2023/02/25 08:29:57;;;;;;;4.18;0.80;;;1.30;99.90;;;;;;4963484;28;20055;-65
2023/02/25 08:32:26;;;;;;;4.70;0.77;;;1.20;99.90;;;;;;4962172;28;20046;-65
2023/02/25 08:34:55;;;;;;;0.80;0.80;;;1.20;99.90;;;;;;4961044;28;20057;-65
2023/02/25 08:37:24;;;;;;;3.40;0.88;;;1.20;99.90;;;;;;4959998;28;20452;-67
2023/02/25 08:39:54;;;;;;;1.92;0.90;;;1.30;99.90;;;;;;4961580;28;20154;-65
2023/02/25 08:42:22;;;;;;;4.05;0.82;;;1.20;99.90;;;;;;4960858;28;20046;-65
2023/02/25 08:44:50;;;;;;;3.53;0.63;;;1.30;99.90;;;;;;4960000;28;20061;-66
2023/02/25 08:47:17;;;;;;;3.83;0.98;;;1.20;99.90;;;;;;4957024;28;20150;-65
2023/02/25 08:49:45;;;;;;;2.60;0.80;;;1.20;99.90;;;;;;4962266;28;20067;-66
2023/02/25 08:52:12;;;;;;;1.85;0.77;;;1.20;99.90;;;;;;4960442;28;20105;-66
2023/02/25 08:54:40;;;;;;;3.20;0.40;;;1.20;99.90;;;;;;4960283;28;20062;-66
2023/02/25 08:57:07;;;;;;;6.47;0.75;;;1.10;99.90;;;;;;4962204;28;20061;-65
2023/02/25 08:59:37;;;;;;;4.32;0.82;;;1.10;99.90;;;;;;4960183;28;20050;-66
2023/02/25 09:02:06;;;;;;;2.08;0.70;;;1.10;99.90;;;;;;4961408;28;20780;-66
2023/02/25 09:04:33;;;;;;;1.25;0.65;;;1.00;99.90;;;;;;4962500;28;20507;-66
2023/02/25 09:07:01;;;;;;;4.28;1.33;;;1.00;99.90;;;;;;4958158;28;20047;-66
2023/02/25 09:09:28;;;;;;;3.97;0.55;;;1.10;99.90;;;;;;4958571;28;20062;-66
2023/02/25 09:11:55;;;;;;;3.50;1.05;;;1.00;99.90;;;;;;4961882;28;20074;-66
2023/02/25 09:14:22;;;;;;;3.13;0.63;;;1.00;99.90;;;;;;4961133;28;20513;-66
2023/02/25 09:16:49;;;;;;;1.58;0.65;;;1.10;99.90;;;;;;4963138;28;20122;-66
2023/02/25 09:19:17;;;;;;;2.97;0.52;;;1.10;99.90;;;;;;4962562;28;20294;-65
2023/02/25 09:21:48;;;;;;;1.15;0.30;;;1.10;99.90;;;;;;4964874;28;20050;-66
2023/02/25 09:24:16;;;;;;;6.90;1.20;;;1.10;99.90;;;;;;4963337;28;20568;-65
2023/02/25 09:26:43;;;;;;;4.28;1.02;;;1.10;99.90;;;;;;4967565;28;20106;-67
2023/02/25 09:29:10;;;;;;;2.72;0.57;;;1.20;99.90;;;;;;4961741;28;20050;-65
2023/02/25 09:31:38;;;;;;;1.83;0.68;;;1.10;99.90;;;;;;4964937;28;20058;-66
2023/02/25 09:34:12;;;;;;;3.95;0.73;;;1.20;99.90;;;;;;4963875;28;20070;-66
2023/02/25 09:36:39;;;;;;;2.58;0.57;;;1.20;99.90;;;;;;4964662;28;20054;-66
2023/02/25 09:39:09;;;;;;;3.65;0.73;;;1.10;99.90;;;;;;4964779;28;20649;-66
2023/02/25 09:42:02;;;;;;;0.90;0.57;;;1.10;99.90;;;;;;4963037;28;20082;-68
2023/02/25 09:44:37;;;;;;;1.25;0.50;;;1.00;99.90;;;;;;4965234;28;20493;-66
2023/02/25 09:47:20;;;;;;;2.42;0.43;;;1.00;99.90;;;;;;4963385;28;20109;-66
2023/02/25 09:50:20;;;;;;;1.40;0.40;;;0.90;99.90;;;;;;4964936;28;20165;-66
2023/02/25 09:52:52;;;;;;;2.70;0.50;;;0.80;99.90;;;;;;4961753;28;20054;-65
2023/02/25 09:55:34;;;;;;;1.83;0.70;;;0.70;99.90;;;;;;4962925;28;22135;-65
2023/02/25 09:58:13;;;;;;;1.08;0.20;;;0.70;99.90;;;;;;4962963;28;20050;-66
2023/02/25 10:01:05;;;;;;;0.45;0.30;;;0.60;99.90;;;;;;4965619;28;20134;-65
2023/02/25 10:03:47;;;;;;;0.77;0.77;;;0.70;99.90;;;;;;4962118;28;20464;-65
2023/02/25 10:06:26;;;;;;;5.93;0.70;;;0.70;99.90;;;;;;4962853;28;20062;-65
2023/02/25 10:09:01;;;;;;;2.17;0.60;;;0.80;99.90;;;;;;4960685;28;20047;-65
2023/02/25 10:11:52;;;;;;;0.80;0.47;;;1.00;99.90;;;;;;4963355;28;20039;-66
2023/02/25 10:15:01;;;;;;;3.60;0.52;;;1.10;99.90;;;;;;4962325;28;20049;-65
2023/02/25 10:17:42;;;;;;;4.65;0.60;;;1.10;99.90;;;;;;4961414;28;20137;-66
2023/02/25 10:20:42;;;;;;;2.25;0.50;;;1.00;99.90;;;;;;4966654;28;20047;-65
2023/02/25 10:23:29;;;;;;;0.95;0.25;;;0.90;99.90;;;;;;4961271;28;20051;-65
2023/02/25 10:25:59;;;;;;;2.25;0.82;;;0.80;99.90;;;;;;4945018;28;20055;-65
2023/02/25 10:28:28;;;;;;;4.28;1.38;;;0.80;99.90;;;;;;4954166;28;20057;-65
2023/02/25 10:31:04;;;;;;;1.25;0.52;;;0.80;99.90;;;;;;4963053;28;20046;-65
2023/02/25 10:33:35;;;;;;;0.98;0.70;;;0.80;99.90;;;;;;4960410;28;20122;-66
2023/02/25 10:36:02;;;;;;;1.42;0.20;;;0.90;99.90;;;;;;4961297;28;20051;-65
2023/02/25 10:38:29;;;;;;;4.20;0.25;;;1.00;99.90;;;;;;4963863;28;20046;-65
2023/02/25 10:40:58;;;;;;;2.67;0.40;;;1.10;99.90;;;;;;4962165;28;20049;-66
2023/02/25 10:43:25;;;;;;;2.70;0.30;;;1.20;99.90;;;;;;4958420;28;20070;-65
2023/02/25 10:46:17;;;;;;;3.58;0.60;;;1.30;99.90;;;;;;4963002;28;20054;-64
2023/02/25 10:48:55;;;;;;;4.68;0.50;;;1.40;99.90;;;;;;4964025;28;20113;-64
2023/02/25 10:51:24;;;;;;;1.23;0.55;;;1.50;99.90;;;;;;4961253;28;20042;-65
2023/02/25 10:53:51;;;;;;;0.88;0.35;;;1.50;99.90;;;;;;4960378;28;20039;-65
2023/02/25 10:56:20;;;;;;;1.48;0.45;;;1.50;99.90;;;;;;4965117;28;20058;-64
2023/02/25 10:59:22;;;;;;;3.72;0.45;;;1.50;99.90;;;;;;4962659;28;20074;-65
2023/02/25 11:01:50;;;;;;;3.00;2.55;;;1.50;99.90;;;;;;4962827;28;20113;-64
2023/02/25 11:04:21;;;;;;;0.57;0.35;;;1.50;99.90;;;;;;4960704;28;20058;-64
2023/02/25 11:06:48;;;;;;;3.15;0.80;;;1.60;99.90;;;;;;4962173;28;20082;-65
2023/02/25 11:09:18;;;;;;;4.00;0.50;;;1.80;99.90;;;;;;4961677;28;20051;-65
2023/02/25 11:12:18;;;;;;;5.18;0.50;;;1.80;99.90;;;;;;4961847;28;20146;-66
2023/02/25 11:14:45;;;;;;;1.98;1.67;;;1.90;99.90;;;;;;4957862;28;20045;-66
2023/02/25 11:17:19;;;;;;;2.30;0.57;;;1.90;99.90;;;;;;4964563;28;20109;-66
2023/02/25 11:19:46;;;;;;;2.17;1.48;;;1.80;99.90;;;;;;4960265;28;20058;-66
2023/02/25 11:22:22;;;;;;;1.45;0.30;;;1.70;99.90;;;;;;4957318;28;20787;-66
2023/02/25 11:25:13;;;;;;;2.08;0.65;;;1.60;99.90;;;;;;4961870;28;20399;-65
2023/02/25 11:27:42;;;;;;;0.63;0.35;;;1.50;99.90;;;;;;4963246;28;20110;-65
2023/02/25 11:30:12;;;;;;;2.38;0.47;;;1.40;99.90;;;;;;4964436;28;20528;-66
2023/02/25 11:32:45;;;;;;;0.50;0.25;;;1.40;99.90;;;;;;4963275;28;20047;-66
2023/02/25 11:35:18;;;;;;;1.20;0.50;;;1.50;99.90;;;;;;4965234;28;20701;-64
2023/02/25 11:37:49;;;;;;;0.40;0.30;;;1.50;99.90;;;;;;4964164;28;21394;-64
2023/02/25 11:40:30;;;;;;;1.25;0.50;;;1.70;99.90;;;;;;4961141;28;20055;-64
2023/02/25 11:43:00;;;;;;;1.05;0.38;;;1.80;99.90;;;;;;4964563;28;20093;-65
2023/02/25 11:46:00;;;;;;;3.45;1.50;;;1.90;99.90;;;;;;4960744;28;20481;-65
2023/02/25 11:48:34;;;;;;;2.17;0.50;;;1.90;99.90;;;;;;4967401;28;20106;-65
2023/02/25 11:51:16;;;;;;;1.33;0.32;;;1.90;99.90;;;;;;4964314;28;20054;-64
2023/02/25 11:54:02;;;;;;;1.83;0.43;;;1.90;99.90;;;;;;4959660;28;20685;-65
2023/02/25 11:56:38;;;;;;;5.57;0.60;;;1.90;99.90;;;;;;4964015;28;20058;-65
2023/02/25 11:59:28;;;;;;;1.65;0.50;;;1.80;99.90;;;;;;4967714;28;20078;-65
2023/02/25 12:02:00;;;;;;;3.30;0.45;;;1.70;99.90;;;;;;4961739;28;20477;-65
2023/02/25 12:04:55;;;;;;;2.33;0.82;;;1.50;99.90;;;;;;4963265;28;20042;-65
2023/02/25 12:07:41;;;;;;;0.70;0.38;;;1.40;99.90;;;;;;4959193;28;20145;-65
2023/02/25 12:10:35;;;;;;;2.70;0.65;;;1.30;99.90;;;;;;4970429;28;20039;-65
2023/02/25 12:13:09;;;;;;;3.00;0.65;;;1.20;99.90;;;;;;4960492;28;20046;-66
2023/02/25 12:16:14;;;;;;;1.13;0.65;;;1.30;99.90;;;;;;4957679;28;20054;-64
2023/02/25 12:18:53;;;;;;;2.05;0.50;;;1.30;99.90;;;;;;4962632;28;20070;-65
2023/02/25 12:21:38;;;;;;;1.77;0.60;;;1.30;99.90;;;;;;4962236;28;20124;-65
2023/02/25 12:24:17;;;;;;;3.80;0.57;;;1.30;99.90;;;;;;4962383;28;20047;-65
2023/02/25 12:26:57;;;;;;;1.20;0.40;;;1.30;99.90;;;;;;4961610;28;20105;-64
2023/02/25 12:29:51;;;;;;;5.25;0.73;;;1.30;99.90;;;;;;4960629;28;20058;-66
2023/02/25 12:32:41;;;;;;;0.70;0.28;;;1.30;99.90;;;;;;4965428;28;20062;-66
2023/02/25 12:36:02;;;;;;;1.65;1.05;;;1.30;99.90;;;;;;4960921;28;20043;-66
2023/02/25 12:38:54;;;;;;;2.00;0.30;;;1.10;99.90;;;;;;4899114;29;20055;-66
2023/02/25 12:41:32;;;;;;;2.22;0.73;;;1.10;99.90;;;;;;4960819;28;20138;-66
2023/02/25 12:44:17;;;;;;;4.45;1.63;;;1.10;99.90;;;;;;4962673;28;20138;-66
2023/02/25 12:46:47;;;;;;;3.72;0.50;;;1.10;99.90;;;;;;4960068;28;20051;-65
2023/02/25 12:49:28;;;;;;;5.20;0.87;;;1.20;99.90;;;;;;4964052;28;20051;-66
2023/02/25 12:52:11;;;;;;;1.38;0.85;;;1.10;99.90;;;;;;4962518;28;20287;-66
2023/02/25 12:55:06;;;;;;;0.80;0.40;;;1.10;99.90;;;;;;4964738;28;20057;-67
2023/02/25 12:58:07;;;;;;;1.05;0.50;;;1.00;99.90;;;;;;4966648;28;20043;-66
2023/02/25 13:01:18;;;;;;;1.25;0.40;;;1.00;99.90;;;;;;4966685;28;20126;-66
2023/02/25 13:04:08;;;;;;;;;;;1.00;99.90;;;;;;4964443;28;20125;-66
2023/02/25 13:07:08;;;;;;;0.88;0.40;;;0.90;99.90;;;;;;4961497;28;20020;-67
2023/02/25 13:09:45;;;;;;;;;;;0.90;99.90;;;;;;4964931;28;20137;-66
2023/02/25 13:12:31;;;;;;;1.98;0.70;;;0.90;99.90;;;;;;4963392;28;19922;-69
2023/02/25 13:15:24;;;;;;;6.50;1.75;;;0.90;99.90;;;;;;4966146;28;20047;-66
2023/02/25 13:18:15;;;;;;;6.90;1.60;;;1.20;99.90;;;;;;4962989;28;20051;-67
2023/02/25 13:21:26;;;;;;;1.55;0.57;;;1.30;99.90;;;;;;4962761;28;20492;-66
2023/02/25 13:23:55;;;;;;;1.10;0.20;;;1.40;99.90;;;;;;4959692;28;20049;-66
2023/02/25 13:26:46;;;;;;;0.38;0.30;;;1.40;99.90;;;;;;4965298;28;20043;-66
2023/02/25 13:29:37;;;;;;;4.25;0.50;;;1.50;99.90;;;;;;4964388;28;20061;-67